East Liberty, Pennsylvania
Current Conditions -  °F | °C
As of 11:36 PM on Tuesday 21 Oct 2014 (Local Time) from KAGC Reporting Station
Light Rain Light Rain  
Wind Chill: 44°   Ceiling: 900
Heat Index: 47°   Visibility: 4mi
Dew Point: 43°   Wind: 6mph
Humidity: 86%   Direction: 320°NW
Pressure: 30.02"   Gusts: NA
Location:  40.4715°N, 79.9138°W
Report Text: KAGC 220336Z 32005KT 4SM -RA BR BKN009 BKN014 OVC044 08/06 A3002 RMK AO2 P0004 T00830061
Loading
Personal Weather Stations






























Interactive Weather Map
Tropical Storm Tracking
New forecast layout! Learn more

10-Day Weather Forecast

Advertisements
Track Severe Weather on mobile